Time;durP1;ratioP1;P1;durP2;ratioP2;P2;SDS_P1;SDS_P2;PMS_P1;PMS_P2;Temp;Humidity;BMP_temperature;BMP_pressure;BME280_temperature;BME280_humidity;BME280_pressure;Samples;Min_cycle;Max_cycle;Signal;HPM_P1;HPM_P2
2023/04/24 07:43:32;;;;;;;;;17.25;15.25;;;;;;;;5116055;27;13675;-70
2023/04/24 07:45:57;;;;;;;;;5.50;4.00;;;;;;;;5109396;28;11472;-70
2023/04/24 07:48:22;;;;;;;;;4.50;4.00;;;;;;;;5106923;28;8820;-71
2023/04/24 07:50:47;;;;;;;;;4.75;4.50;;;;;;;;5105182;28;9012;-73
2023/04/24 07:53:13;;;;;;;;;2.50;2.00;;;;;;;;5111602;28;8824;-69
2023/04/24 07:55:38;;;;;;;;;3.00;1.75;;;;;;;;5114567;28;8878;-70
2023/04/24 07:58:04;;;;;;;;;2.25;2.00;;;;;;;;5106268;28;8816;-69
2023/04/24 08:00:29;;;;;;;;;2.00;2.00;;;;;;;;5119114;27;9009;-68
2023/04/24 08:02:54;;;;;;;;;1.00;1.00;;;;;;;;5127243;27;9358;-68
2023/04/24 08:05:19;;;;;;;;;1.25;1.25;;;;;;;;5121673;27;9692;-69
2023/04/24 08:07:46;;;;;;;;;2.25;2.25;;;;;;;;5114700;28;8833;-70
2023/04/24 08:10:11;;;;;;;;;2.75;2.75;;;;;;;;5121894;27;8831;-78
2023/04/24 08:12:37;;;;;;;;;4.25;3.50;;;;;;;;5110006;27;10547;-71
2023/04/24 08:15:02;;;;;;;;;2.25;2.25;;;;;;;;5104607;27;8788;-71
2023/04/24 08:17:30;;;;;;;;;2.75;2.75;;;;;;;;5106227;28;8784;-72
2023/04/24 08:20:01;;;;;;;;;4.00;2.00;;;;;;;;5104288;28;8812;-72
2023/04/24 08:22:32;;;;;;;;;7.00;3.75;;;;;;;;5105481;28;10366;-73
2023/04/24 08:25:00;;;;;;;;;3.50;2.25;;;;;;;;5103995;27;10263;-72
2023/04/24 08:27:25;;;;;;;;;4.75;3.25;;;;;;;;5104768;28;10670;-72
2023/04/24 08:29:52;;;;;;;;;5.75;4.00;;;;;;;;5111674;27;10147;-73
2023/04/24 08:32:18;;;;;;;;;2.50;2.00;;;;;;;;5124976;27;9585;-71
2023/04/24 08:34:43;;;;;;;;;4.00;4.00;;;;;;;;5126229;27;9936;-68
2023/04/24 08:37:08;;;;;;;;;3.00;2.00;;;;;;;;5122472;27;9366;-77
2023/04/24 08:39:33;;;;;;;;;2.00;2.00;;;;;;;;5126519;27;8770;-72
2023/04/24 08:42:05;;;;;;;;;2.00;2.00;;;;;;;;5126072;27;8845;-72
2023/04/24 08:44:31;;;;;;;;;2.00;2.00;;;;;;;;5125889;27;8773;-70
2023/04/24 08:46:57;;;;;;;;;3.00;2.00;;;;;;;;5107142;28;10006;-69
2023/04/24 08:49:24;;;;;;;;;3.50;3.00;;;;;;;;5105493;28;9884;-71
2023/04/24 08:51:50;;;;;;;;;3.50;2.25;;;;;;;;5105793;28;9422;-72
2023/04/24 08:54:16;;;;;;;;;3.00;2.00;;;;;;;;5094454;28;9900;-74
2023/04/24 08:56:44;;;;;;;;;3.50;2.75;;;;;;;;5101720;28;9866;-72
2023/04/24 08:59:10;;;;;;;;;6.00;5.00;;;;;;;;5112706;27;8803;-72
2023/04/24 09:01:37;;;;;;;;;4.75;3.00;;;;;;;;5112347;28;10136;-72
2023/04/24 09:04:03;;;;;;;;;2.00;2.00;;;;;;;;5112627;28;8808;-74
2023/04/24 09:06:30;;;;;;;;;2.00;2.00;;;;;;;;5097106;28;9899;-68
2023/04/24 09:08:57;;;;;;;;;2.75;2.75;;;;;;;;5091104;28;10158;-81
2023/04/24 09:11:24;;;;;;;;;3.75;3.75;;;;;;;;5092359;28;10184;-76
2023/04/24 09:13:50;;;;;;;;;10.75;8.00;;;;;;;;5092614;28;10262;-81
2023/04/24 09:16:15;;;;;;;;;3.75;3.50;;;;;;;;5099839;28;10270;-75
2023/04/24 09:18:40;;;;;;;;;4.00;3.00;;;;;;;;5112928;27;8793;-68
2023/04/24 09:21:09;;;;;;;;;4.00;3.00;;;;;;;;5111990;28;8773;-76
2023/04/24 09:23:34;;;;;;;;;3.75;3.00;;;;;;;;5110099;28;8813;-70
2023/04/24 09:26:01;;;;;;;;;7.00;4.00;;;;;;;;5090502;28;10275;-70
2023/04/24 09:28:35;;;;;;;;;3.00;3.00;;;;;;;;5091604;28;9746;-70
2023/04/24 09:31:09;;;;;;;;;3.00;2.50;;;;;;;;5092480;28;10412;-77
2023/04/24 09:33:34;;;;;;;;;4.25;4.00;;;;;;;;5079669;28;10350;-72
2023/04/24 09:36:00;;;;;;;;;4.50;3.75;;;;;;;;5089792;28;11360;-75
2023/04/24 09:38:35;;;;;;;;;6.00;2.75;;;;;;;;5089765;28;8820;-74
2023/04/24 09:41:03;;;;;;;;;2.00;2.00;;;;;;;;5091165;28;8815;-70
2023/04/24 09:43:28;;;;;;;;;3.00;3.00;;;;;;;;5091142;28;9829;-77
2023/04/24 09:45:55;;;;;;;;;2.25;2.25;;;;;;;;5093473;28;9969;-74
2023/04/24 09:48:29;;;;;;;;;5.75;3.00;;;;;;;;5091689;28;8788;-76
2023/04/24 09:50:55;;;;;;;;;2.50;2.00;;;;;;;;5091383;28;10141;-76
2023/04/24 09:53:23;;;;;;;;;6.25;6.25;;;;;;;;5091269;28;10276;-78
2023/04/24 09:55:50;;;;;;;;;3.00;3.00;;;;;;;;5091514;28;8788;-74
2023/04/24 09:58:15;;;;;;;;;4.50;3.00;;;;;;;;5103213;28;9975;-73
2023/04/24 10:00:41;;;;;;;;;3.25;3.25;;;;;;;;5103483;28;9977;-74
2023/04/24 10:03:06;;;;;;;;;3.50;2.25;;;;;;;;5111949;28;8917;-77
2023/04/24 10:05:32;;;;;;;;;3.00;3.00;;;;;;;;5110233;28;8889;-73
2023/04/24 10:08:08;;;;;;;;;2.50;2.50;;;;;;;;5111670;28;8773;-77
2023/04/24 10:10:35;;;;;;;;;4.75;3.25;;;;;;;;5110953;28;10466;-75
2023/04/24 10:13:01;;;;;;;;;5.75;5.00;;;;;;;;5109980;28;9988;-72
2023/04/24 10:15:26;;;;;;;;;4.00;3.75;;;;;;;;5107965;28;9879;-70
2023/04/24 10:17:52;;;;;;;;;4.00;4.00;;;;;;;;5109944;28;9886;-72
2023/04/24 10:20:18;;;;;;;;;3.75;3.75;;;;;;;;5095972;28;8772;-72
2023/04/24 10:22:45;;;;;;;;;4.00;1.25;;;;;;;;5092835;28;8840;-72
2023/04/24 10:25:13;;;;;;;;;3.25;3.25;;;;;;;;5092632;28;10154;-71
2023/04/24 10:27:39;;;;;;;;;3.25;3.25;;;;;;;;5090984;28;10017;-73
2023/04/24 10:30:05;;;;;;;;;2.50;2.25;;;;;;;;5099871;28;10114;-73
2023/04/24 10:32:30;;;;;;;;;3.75;2.00;;;;;;;;5110926;28;11617;-71
2023/04/24 10:34:56;;;;;;;;;3.00;2.00;;;;;;;;5110706;28;10275;-71
2023/04/24 10:37:21;;;;;;;;;2.75;2.75;;;;;;;;5110218;28;8899;-72
2023/04/24 10:39:48;;;;;;;;;2.00;2.00;;;;;;;;5110536;28;8795;-73
2023/04/24 10:42:15;;;;;;;;;5.50;4.00;;;;;;;;5109159;28;8855;-72
2023/04/24 10:44:40;;;;;;;;;8.75;6.50;;;;;;;;5110503;28;10649;-72
2023/04/24 10:47:12;;;;;;;;;2.25;2.00;;;;;;;;5110479;28;10726;-73
2023/04/24 10:49:37;;;;;;;;;4.00;2.00;;;;;;;;5110349;28;9511;-72
2023/04/24 10:52:05;;;;;;;;;3.75;3.00;;;;;;;;5110195;28;10454;-72
2023/04/24 10:54:40;;;;;;;;;3.00;3.00;;;;;;;;5109817;28;8817;-72
2023/04/24 10:57:21;;;;;;;;;3.50;2.25;;;;;;;;5110184;28;10292;-72
2023/04/24 10:59:47;;;;;;;;;6.50;4.00;;;;;;;;5110161;28;10253;-72
2023/04/24 11:02:16;;;;;;;;;3.75;3.00;;;;;;;;5110113;28;11142;-73
2023/04/24 11:04:42;;;;;;;;;2.00;2.00;;;;;;;;5110244;28;8777;-72
2023/04/24 11:07:09;;;;;;;;;2.75;1.00;;;;;;;;5109816;28;10581;-71
2023/04/24 11:09:36;;;;;;;;;4.75;2.75;;;;;;;;5110234;28;8808;-72
2023/04/24 11:12:11;;;;;;;;;3.00;2.50;;;;;;;;5108653;28;11090;-72
2023/04/24 11:14:55;;;;;;;;;2.00;2.00;;;;;;;;5109550;28;10416;-71
2023/04/24 11:17:29;;;;;;;;;2.75;2.00;;;;;;;;5109676;28;10476;-72
2023/04/24 11:20:00;;;;;;;;;2.00;2.00;;;;;;;;5109870;28;10622;-72
2023/04/24 11:22:27;;;;;;;;;4.00;3.00;;;;;;;;5109936;28;10427;-72
2023/04/24 11:24:53;;;;;;;;;2.75;2.75;;;;;;;;5118435;22;10609;-75
2023/04/24 11:27:20;;;;;;;;;3.75;3.00;;;;;;;;5032795;28;10585;-75
2023/04/24 11:29:48;;;;;;;;;3.25;2.00;;;;;;;;5056726;28;8800;-75
2023/04/24 11:32:19;;;;;;;;;3.25;2.75;;;;;;;;5070069;28;10593;-75
2023/04/24 11:34:45;;;;;;;;;3.75;3.50;;;;;;;;5052555;28;10335;-75
2023/04/24 11:37:11;;;;;;;;;2.00;2.00;;;;;;;;5070741;28;10442;-74
2023/04/24 11:39:37;;;;;;;;;5.00;3.00;;;;;;;;5070542;28;10765;-74
2023/04/24 11:42:03;;;;;;;;;3.75;2.00;;;;;;;;5070581;28;8836;-75
2023/04/24 11:44:29;;;;;;;;;3.00;2.00;;;;;;;;5052257;28;10318;-75
2023/04/24 11:46:55;;;;;;;;;2.50;2.50;;;;;;;;5070717;28;10377;-76
2023/04/24 11:49:21;;;;;;;;;2.50;1.75;;;;;;;;5070508;28;8869;-75
2023/04/24 11:51:46;;;;;;;;;3.50;3.50;;;;;;;;5070128;28;10168;-75
2023/04/24 11:54:11;;;;;;;;;3.75;2.75;;;;;;;;5070507;28;8885;-75
2023/04/24 11:56:36;;;;;;;;;3.75;2.00;;;;;;;;5052469;28;8804;-75
2023/04/24 11:59:03;;;;;;;;;3.00;3.00;;;;;;;;5070343;28;9608;-75
2023/04/24 12:01:29;;;;;;;;;2.00;2.00;;;;;;;;5069876;28;8795;-74
2023/04/24 12:03:59;;;;;;;;;3.75;2.75;;;;;;;;5044819;28;10107;-73
2023/04/24 12:06:25;;;;;;;;;4.00;3.00;;;;;;;;5050252;28;8774;-71
2023/04/24 12:08:52;;;;;;;;;2.75;1.75;;;;;;;;5050155;28;10250;-77
2023/04/24 12:11:20;;;;;;;;;1.25;1.25;;;;;;;;5031664;28;8803;-72
2023/04/24 12:13:46;;;;;;;;;3.00;3.00;;;;;;;;5038674;28;10476;-69
2023/04/24 12:16:11;;;;;;;;;3.00;3.00;;;;;;;;5017631;28;10560;-69
2023/04/24 12:18:41;;;;;;;;;5.25;3.50;;;;;;;;5040627;28;8805;-68
2023/04/24 12:21:20;;;;;;;;;1.00;1.00;;;;;;;;5043058;28;8802;-68
2023/04/24 12:23:45;;;;;;;;;3.00;3.00;;;;;;;;5038479;28;10405;-70
2023/04/24 12:26:11;;;;;;;;;4.00;2.25;;;;;;;;5047718;28;10682;-69
2023/04/24 12:28:38;;;;;;;;;1.50;1.50;;;;;;;;5016452;28;8829;-68
2023/04/24 12:31:03;;;;;;;;;4.00;2.00;;;;;;;;5047368;28;10436;-66
2023/04/24 12:33:32;;;;;;;;;2.25;2.25;;;;;;;;5042777;28;10501;-70
2023/04/24 12:35:57;;;;;;;;;1.75;1.00;;;;;;;;5043815;28;8812;-70
2023/04/24 12:38:24;;;;;;;;;3.75;3.75;;;;;;;;5038852;28;10434;-73
2023/04/24 12:41:01;;;;;;;;;3.75;2.00;;;;;;;;5041469;28;8814;-72
2023/04/24 12:43:26;;;;;;;;;1.75;1.50;;;;;;;;5049408;28;11265;-73
2023/04/24 12:45:51;;;;;;;;;3.00;2.25;;;;;;;;5046105;28;10335;-74
2023/04/24 12:48:16;;;;;;;;;2.75;2.00;;;;;;;;5043191;28;9621;-74
2023/04/24 12:50:42;;;;;;;;;2.00;2.00;;;;;;;;5046510;28;8803;-74
2023/04/24 12:53:08;;;;;;;;;2.00;2.00;;;;;;;;5043063;28;8913;-72
2023/04/24 12:55:34;;;;;;;;;4.50;2.00;;;;;;;;5042328;28;11008;-73
2023/04/24 12:57:59;;;;;;;;;3.00;1.50;;;;;;;;5039863;28;8887;-72
2023/04/24 13:00:24;;;;;;;;;3.25;3.25;;;;;;;;5044845;28;9547;-72
2023/04/24 13:02:50;;;;;;;;;2.50;2.50;;;;;;;;5042718;28;8915;-72
2023/04/24 13:05:15;;;;;;;;;2.25;2.25;;;;;;;;5043279;28;8842;-72
2023/04/24 13:07:40;;;;;;;;;3.50;2.00;;;;;;;;5042392;28;8867;-72
2023/04/24 13:10:06;;;;;;;;;2.00;2.00;;;;;;;;5040900;28;8787;-72
2023/04/24 13:12:31;;;;;;;;;2.50;2.50;;;;;;;;5044209;28;8783;-70
2023/04/24 13:14:57;;;;;;;;;3.00;2.00;;;;;;;;5040904;28;8788;-68
2023/04/24 13:17:22;;;;;;;;;2.25;2.25;;;;;;;;5043000;28;8816;-69
2023/04/24 13:19:49;;;;;;;;;3.00;2.00;;;;;;;;5038765;28;8795;-70
2023/04/24 13:22:14;;;;;;;;;3.50;2.00;;;;;;;;5048562;28;8861;-72
2023/04/24 13:27:16;;;;;;;;;3.00;2.00;;;;;;;;5047593;28;10002;-73
2023/04/24 13:29:41;;;;;;;;;3.00;3.00;;;;;;;;5031433;28;10384;-78
2023/04/24 13:32:06;;;;;;;;;1.75;1.75;;;;;;;;5026867;28;8889;-76
2023/04/24 13:34:32;;;;;;;;;2.50;1.00;;;;;;;;5042616;28;8808;-75
2023/04/24 13:36:58;;;;;;;;;1.75;1.75;;;;;;;;5048623;28;8982;-80
2023/04/24 13:39:24;;;;;;;;;1.25;1.25;;;;;;;;5049077;28;8828;-78
2023/04/24 13:41:49;;;;;;;;;4.75;3.00;;;;;;;;5046720;28;10622;-76
2023/04/24 13:44:15;;;;;;;;;3.00;2.25;;;;;;;;5030061;28;11573;-76
2023/04/24 13:46:41;;;;;;;;;4.00;3.75;;;;;;;;5050262;28;8800;-76
2023/04/24 13:49:06;;;;;;;;;4.75;3.75;;;;;;;;5053038;28;10693;-77
2023/04/24 13:51:32;;;;;;;;;2.00;2.00;;;;;;;;5064880;28;8842;-77
2023/04/24 13:53:57;;;;;;;;;4.00;3.00;;;;;;;;5048968;28;8818;-76
2023/04/24 13:56:22;;;;;;;;;4.50;3.00;;;;;;;;5021906;28;8814;-77
2023/04/24 13:58:48;;;;;;;;;3.00;1.75;;;;;;;;5040724;28;8964;-75
2023/04/24 14:01:14;;;;;;;;;2.00;1.00;;;;;;;;5052676;28;8812;-79
2023/04/24 14:03:40;;;;;;;;;2.50;2.00;;;;;;;;5036062;28;9018;-76
2023/04/24 14:06:06;;;;;;;;;2.00;2.00;;;;;;;;5030831;28;10323;-67
2023/04/24 14:08:31;;;;;;;;;3.50;2.75;;;;;;;;5029366;28;8821;-72
2023/04/24 14:10:56;;;;;;;;;3.50;2.00;;;;;;;;5029180;28;10489;-73
2023/04/24 14:13:22;;;;;;;;;1.75;1.75;;;;;;;;5041946;28;8832;-75
2023/04/24 14:15:47;;;;;;;;;2.00;1.00;;;;;;;;5050241;28;8833;-73
2023/04/24 14:18:12;;;;;;;;;1.75;1.00;;;;;;;;5050364;28;8832;-73
2023/04/24 14:20:37;;;;;;;;;1.00;1.00;;;;;;;;5049897;28;8936;-75
2023/04/24 14:23:04;;;;;;;;;0.75;0.75;;;;;;;;5044182;28;8804;-76
2023/04/24 14:25:29;;;;;;;;;2.00;1.00;;;;;;;;5048716;28;8820;-78
2023/04/24 14:27:55;;;;;;;;;1.00;1.00;;;;;;;;5049605;28;10520;-78
2023/04/24 14:30:20;;;;;;;;;1.00;1.00;;;;;;;;5048861;28;8807;-76
2023/04/24 14:32:46;;;;;;;;;1.00;1.00;;;;;;;;5046350;28;8872;-79
2023/04/24 14:35:11;;;;;;;;;1.00;1.00;;;;;;;;5050005;28;8808;-75
2023/04/24 14:37:36;;;;;;;;;1.75;1.00;;;;;;;;5050217;28;8806;-74
2023/04/24 14:40:02;;;;;;;;;1.00;1.00;;;;;;;;5049871;28;8811;-78
2023/04/24 14:42:28;;;;;;;;;2.25;1.00;;;;;;;;5047445;28;8820;-77
2023/04/24 14:44:54;;;;;;;;;1.00;1.00;;;;;;;;5031877;28;11008;-76
2023/04/24 14:47:21;;;;;;;;;3.00;1.00;;;;;;;;5050504;28;8807;-82
2023/04/24 14:49:46;;;;;;;;;2.00;1.00;;;;;;;;5050155;28;8911;-83
2023/04/24 14:52:12;;;;;;;;;1.00;1.00;;;;;;;;5047401;28;10580;-73
2023/04/24 14:54:37;;;;;;;;;0.00;0.00;;;;;;;;5048966;28;8796;-75
2023/04/24 14:57:02;;;;;;;;;2.00;1.00;;;;;;;;5049391;28;8910;-80
2023/04/24 14:59:28;;;;;;;;;2.00;2.00;;;;;;;;5049029;28;8941;-73
2023/04/24 15:01:57;;;;;;;;;0.00;0.00;;;;;;;;5045356;28;8847;-73
2023/04/24 15:04:25;;;;;;;;;3.00;2.00;;;;;;;;5045980;28;10241;-75
2023/04/24 15:06:50;;;;;;;;;4.50;1.75;;;;;;;;5047904;28;10363;-69
2023/04/24 15:09:15;;;;;;;;;0.75;0.75;;;;;;;;5047007;28;10358;-71
2023/04/24 15:11:41;;;;;;;;;2.00;2.00;;;;;;;;5047841;28;8812;-71
2023/04/24 15:14:06;;;;;;;;;2.00;2.00;;;;;;;;5027923;28;8854;-71
2023/04/24 15:16:31;;;;;;;;;1.75;1.75;;;;;;;;5030320;28;9629;-72
2023/04/24 15:18:57;;;;;;;;;1.00;1.00;;;;;;;;5048026;28;8804;-72
2023/04/24 15:21:22;;;;;;;;;1.00;1.00;;;;;;;;5047660;28;8796;-72
2023/04/24 15:23:47;;;;;;;;;0.25;0.00;;;;;;;;5046043;28;8870;-72
2023/04/24 15:26:13;;;;;;;;;1.00;1.00;;;;;;;;5046092;28;8804;-76
2023/04/24 15:28:38;;;;;;;;;1.00;1.00;;;;;;;;5046518;28;8865;-75
2023/04/24 21:44:01;;;;;;;;;7.00;3.75;;;;;;;;4993163;28;13468;-71
2023/04/24 21:46:27;;;;;;;;;4.00;4.00;;;;;;;;4945231;28;11729;-70
2023/04/24 21:48:52;;;;;;;;;3.25;2.75;;;;;;;;5002021;28;11522;-71
2023/04/24 21:51:19;;;;;;;;;6.25;5.00;;;;;;;;4955716;28;11519;-70
2023/04/24 21:53:44;;;;;;;;;3.00;2.00;;;;;;;;5015541;28;8841;-71
2023/04/24 21:56:10;;;;;;;;;6.00;2.00;;;;;;;;5001790;28;11487;-71
2023/04/24 21:58:35;;;;;;;;;7.25;5.00;;;;;;;;4986841;28;8807;-72
2023/04/24 22:01:00;;;;;;;;;2.75;1.75;;;;;;;;4986612;28;9069;-72
2023/04/24 22:03:26;;;;;;;;;5.25;1.25;;;;;;;;4986216;28;8941;-73
2023/04/24 22:05:51;;;;;;;;;3.25;2.00;;;;;;;;4987118;28;8804;-71
2023/04/24 22:08:16;;;;;;;;;3.25;3.25;;;;;;;;4987023;28;9005;-72
2023/04/24 22:10:42;;;;;;;;;7.00;3.50;;;;;;;;4986909;28;8799;-72
2023/04/24 22:13:07;;;;;;;;;3.00;2.50;;;;;;;;4994231;28;8939;-71
2023/04/24 22:15:32;;;;;;;;;4.25;3.00;;;;;;;;5006367;28;8788;-72
2023/04/24 22:17:59;;;;;;;;;6.00;3.00;;;;;;;;5006291;28;8916;-73
2023/04/24 22:20:24;;;;;;;;;5.75;3.75;;;;;;;;5006199;28;8801;-73
2023/04/24 22:22:50;;;;;;;;;5.75;2.50;;;;;;;;5006172;28;11608;-72
2023/04/24 22:25:16;;;;;;;;;4.00;3.00;;;;;;;;5006132;28;8831;-72
2023/04/24 22:27:41;;;;;;;;;8.00;3.50;;;;;;;;5006684;28;8801;-73
2023/04/24 22:30:08;;;;;;;;;4.00;3.00;;;;;;;;5004810;28;11530;-72
2023/04/24 22:32:33;;;;;;;;;3.25;3.25;;;;;;;;5005993;28;8958;-72
2023/04/24 22:34:59;;;;;;;;;4.50;4.50;;;;;;;;5004694;28;11445;-72
2023/04/24 22:37:24;;;;;;;;;2.00;2.00;;;;;;;;5006091;28;8879;-72
2023/04/24 22:39:49;;;;;;;;;5.50;3.00;;;;;;;;5005790;28;8839;-72
2023/04/24 22:42:15;;;;;;;;;6.00;3.75;;;;;;;;5007706;28;9590;-72
2023/04/24 22:44:40;;;;;;;;;7.50;4.00;;;;;;;;5010591;28;8808;-72
2023/04/24 22:47:07;;;;;;;;;3.00;3.00;;;;;;;;5010097;28;8825;-72
2023/04/24 22:49:33;;;;;;;;;4.50;3.75;;;;;;;;5006857;28;8840;-72
2023/04/24 22:51:59;;;;;;;;;5.00;3.50;;;;;;;;5004775;28;11479;-71
2023/04/24 22:54:24;;;;;;;;;3.75;3.25;;;;;;;;4997337;28;11567;-71
2023/04/24 22:56:51;;;;;;;;;7.00;4.00;;;;;;;;4992198;28;9583;-71
2023/04/24 22:59:17;;;;;;;;;6.75;3.00;;;;;;;;4992139;28;8841;-71
2023/04/24 23:01:42;;;;;;;;;3.00;3.00;;;;;;;;4991952;28;12296;-71
2023/04/24 23:04:08;;;;;;;;;6.00;1.00;;;;;;;;4992357;28;8824;-72
2023/04/24 23:06:33;;;;;;;;;6.25;2.00;;;;;;;;4992316;28;8859;-72
2023/04/24 23:08:58;;;;;;;;;4.50;2.00;;;;;;;;4992253;28;8809;-72
2023/04/24 23:11:23;;;;;;;;;3.00;3.00;;;;;;;;4992376;28;8851;-72
2023/04/24 23:13:49;;;;;;;;;2.00;2.00;;;;;;;;4992395;28;8903;-72
2023/04/24 23:16:14;;;;;;;;;6.00;1.75;;;;;;;;4992254;28;8805;-73
2023/04/24 23:18:40;;;;;;;;;2.25;2.00;;;;;;;;4992252;28;8817;-72
2023/04/24 23:21:05;;;;;;;;;6.50;3.50;;;;;;;;4991205;28;8793;-72
2023/04/24 23:23:30;;;;;;;;;3.25;2.25;;;;;;;;4991651;28;9559;-72
2023/04/24 23:25:56;;;;;;;;;2.25;2.25;;;;;;;;4992403;28;8817;-72
2023/04/24 23:28:21;;;;;;;;;6.00;3.00;;;;;;;;4991896;28;8821;-71
2023/04/24 23:30:46;;;;;;;;;2.50;2.50;;;;;;;;4990202;28;9690;-71
2023/04/24 23:33:12;;;;;;;;;3.00;3.00;;;;;;;;4991765;28;8833;-72
2023/04/24 23:35:38;;;;;;;;;3.00;2.75;;;;;;;;4990335;28;8837;-72
2023/04/24 23:38:03;;;;;;;;;6.50;3.25;;;;;;;;4991393;28;11498;-72
2023/04/24 23:40:29;;;;;;;;;6.25;3.00;;;;;;;;4991426;28;8821;-72
2023/04/24 23:42:54;;;;;;;;;5.25;2.50;;;;;;;;4991429;28;8847;-72
2023/04/24 23:45:19;;;;;;;;;2.00;2.00;;;;;;;;4991311;28;8817;-71
2023/04/24 23:47:44;;;;;;;;;3.00;3.00;;;;;;;;4991444;28;8793;-73
2023/04/24 23:50:10;;;;;;;;;3.00;3.00;;;;;;;;4991378;28;8821;-73
2023/04/24 23:52:35;;;;;;;;;6.00;3.00;;;;;;;;4991462;28;8807;-73
2023/04/24 23:55:01;;;;;;;;;4.50;2.50;;;;;;;;4991409;28;8812;-73
2023/04/24 23:57:27;;;;;;;;;3.00;2.00;;;;;;;;4991570;28;8837;-72
2023/04/24 23:59:52;;;;;;;;;6.50;6.25;;;;;;;;4991376;28;8816;-72
